createdAt,value
2022-10-19T00:01:31.043Z,2.33
2022-10-19T00:04:03.517Z,2.10
2022-10-19T00:06:39.600Z,2.40
2022-10-19T00:09:08.972Z,2.40
2022-10-19T00:11:38.334Z,2.67
2022-10-19T00:14:07.531Z,2.70
2022-10-19T00:16:36.666Z,2.20
2022-10-19T00:19:06.490Z,3.23
2022-10-19T00:21:34.662Z,2.80
2022-10-19T00:24:05.005Z,3.00
2022-10-19T00:26:33.311Z,3.33
2022-10-19T00:29:02.012Z,3.43
2022-10-19T00:31:30.276Z,3.27
2022-10-19T00:33:58.889Z,2.43
2022-10-19T00:36:32.832Z,3.40
2022-10-19T00:39:01.202Z,2.90
2022-10-19T00:41:34.743Z,2.90
2022-10-19T00:44:05.221Z,2.90
2022-10-19T00:46:34.110Z,2.87
2022-10-19T00:49:07.024Z,2.73
2022-10-19T00:51:45.317Z,2.77
2022-10-19T00:54:13.811Z,3.30
2022-10-19T00:56:44.453Z,3.00
2022-10-19T00:59:13.520Z,3.10
2022-10-19T01:01:44.892Z,3.07
2022-10-19T01:04:13.141Z,3.23
2022-10-19T01:06:41.653Z,2.50
2022-10-19T01:09:10.395Z,2.20
2022-10-19T01:11:44.652Z,2.00
2022-10-19T01:14:24.539Z,2.10
2022-10-19T01:16:55.781Z,2.07
2022-10-19T01:19:37.233Z,1.83
2022-10-19T01:22:09.071Z,2.10
2022-10-19T01:24:50.072Z,2.70
2022-10-19T01:27:47.490Z,2.87
2022-10-19T01:30:23.671Z,2.90
2022-10-19T01:32:56.334Z,2.70
2022-10-19T01:35:28.733Z,3.10
2022-10-19T01:38:02.671Z,2.87
2022-10-19T01:40:34.517Z,2.83
2022-10-19T01:43:03.955Z,2.93
2022-10-19T01:45:35.556Z,3.03
2022-10-19T01:48:04.340Z,4.00
2022-10-19T01:50:41.462Z,3.53
2022-10-19T01:53:10.514Z,3.33
2022-10-19T01:55:41.595Z,3.40
2022-10-19T01:58:12.308Z,3.80
2022-10-19T02:00:43.665Z,3.33
2022-10-19T02:03:11.960Z,3.50
2022-10-19T02:05:40.199Z,4.03
2022-10-19T02:08:12.030Z,3.43
2022-10-19T02:10:40.780Z,3.83
2022-10-19T02:13:08.951Z,3.73
2022-10-19T02:15:38.071Z,5.03
2022-10-19T02:18:08.641Z,4.20
2022-10-19T02:20:38.299Z,4.00
2022-10-19T02:23:09.677Z,3.93
2022-10-19T02:25:37.814Z,4.23
2022-10-19T02:28:06.540Z,4.20
2022-10-19T02:30:35.292Z,4.50
2022-10-19T02:33:03.515Z,3.60
2022-10-19T02:35:33.400Z,2.90
2022-10-19T02:38:02.517Z,3.33
2022-10-19T02:40:31.565Z,3.70
2022-10-19T02:43:01.879Z,4.23
2022-10-19T02:45:31.022Z,4.60
2022-10-19T02:48:03.969Z,4.03
2022-10-19T02:50:35.017Z,4.17
2022-10-19T02:53:03.694Z,3.97
2022-10-19T02:55:34.520Z,4.03
2022-10-19T02:58:02.824Z,3.67
2022-10-19T03:00:31.251Z,4.03
2022-10-19T03:03:04.410Z,3.80
2022-10-19T03:05:34.241Z,4.07
2022-10-19T03:08:02.516Z,3.97
2022-10-19T03:10:30.616Z,4.70
2022-10-19T03:12:59.328Z,4.73
2022-10-19T03:15:29.279Z,4.80
2022-10-19T03:17:57.782Z,6.00
2022-10-19T03:20:26.180Z,6.50
2022-10-19T03:22:56.001Z,7.80
2022-10-19T03:25:24.144Z,6.77
2022-10-19T03:27:52.340Z,6.07
2022-10-19T03:30:27.199Z,5.80
2022-10-19T03:32:55.790Z,6.33
2022-10-19T03:35:36.253Z,4.70
2022-10-19T03:38:07.371Z,4.53
2022-10-19T03:40:35.583Z,5.00
2022-10-19T03:43:03.916Z,4.60
2022-10-19T03:45:32.541Z,5.40
2022-10-19T03:48:00.698Z,5.47
2022-10-19T03:50:28.896Z,4.80
2022-10-19T03:52:57.100Z,4.57
2022-10-19T03:55:26.893Z,4.30
2022-10-19T03:58:00.395Z,4.80
2022-10-19T04:00:28.985Z,4.40
2022-10-19T04:02:57.078Z,4.17
2022-10-19T04:05:28.324Z,3.80
2022-10-19T04:07:56.486Z,3.23
2022-10-19T04:10:27.649Z,3.47
2022-10-19T04:12:56.057Z,3.27
2022-10-19T04:15:24.492Z,3.20
2022-10-19T04:17:52.898Z,4.30
2022-10-19T04:20:23.004Z,4.33
2022-10-19T04:22:54.283Z,5.00
2022-10-19T04:25:22.794Z,4.37
2022-10-19T04:27:52.811Z,6.03
2022-10-19T04:30:23.011Z,4.70
2022-10-19T04:32:55.625Z,5.10
2022-10-19T04:35:24.014Z,5.50
2022-10-19T04:37:52.339Z,5.00
2022-10-19T04:40:20.598Z,4.77
2022-10-19T04:42:48.851Z,4.03
2022-10-19T04:45:18.875Z,3.53
2022-10-19T04:47:47.210Z,4.00
2022-10-19T04:50:15.507Z,3.87
2022-10-19T04:52:46.138Z,4.37
2022-10-19T04:55:14.394Z,3.93
2022-10-19T04:57:42.771Z,4.40
2022-10-19T05:00:14.882Z,3.73
2022-10-19T05:02:50.070Z,3.87
2022-10-19T05:06:05.586Z,3.73
2022-10-19T05:08:56.471Z,3.93
2022-10-19T05:11:26.727Z,3.23
2022-10-19T05:14:12.459Z,3.33
2022-10-19T05:16:44.628Z,3.37
2022-10-19T05:19:14.791Z,3.77
2022-10-19T05:21:43.176Z,3.37
2022-10-19T05:24:14.073Z,4.00
2022-10-19T05:26:42.289Z,3.67
2022-10-19T05:29:12.705Z,3.40
2022-10-19T05:31:41.550Z,3.23
2022-10-19T05:34:10.005Z,3.40
2022-10-19T05:36:40.047Z,3.93
2022-10-19T05:39:09.679Z,4.43
2022-10-19T05:41:38.063Z,3.93
2022-10-19T05:44:06.633Z,4.00
2022-10-19T05:46:35.070Z,4.53
2022-10-19T05:49:03.243Z,4.07
2022-10-19T05:51:31.417Z,4.73
2022-10-19T05:54:03.889Z,4.00
2022-10-19T05:56:32.397Z,3.87
2022-10-19T05:59:01.802Z,4.60
2022-10-19T06:01:30.241Z,5.00
2022-10-19T06:03:59.298Z,4.57
2022-10-19T06:06:27.633Z,4.60
2022-10-19T06:08:56.674Z,4.87
2022-10-19T06:11:27.864Z,5.20
2022-10-19T06:13:57.377Z,4.50
2022-10-19T06:16:26.095Z,4.23
2022-10-19T06:18:56.125Z,4.70
2022-10-19T06:21:25.618Z,4.57
2022-10-19T06:23:54.162Z,4.83
2022-10-19T06:26:22.569Z,5.23
2022-10-19T06:28:52.197Z,4.03
2022-10-19T06:31:20.555Z,4.93
2022-10-19T06:33:49.624Z,4.53
2022-10-19T06:36:18.969Z,4.77
2022-10-19T06:38:54.243Z,4.57
2022-10-19T06:41:24.867Z,5.17
2022-10-19T06:43:55.011Z,4.90
2022-10-19T06:46:24.353Z,4.80
2022-10-19T06:48:54.346Z,4.40
2022-10-19T06:51:23.152Z,4.57
2022-10-19T06:53:52.832Z,4.47
2022-10-19T06:56:24.619Z,4.40
2022-10-19T06:58:54.587Z,4.50
2022-10-19T07:01:23.104Z,4.90
2022-10-19T07:03:52.811Z,4.83
2022-10-19T07:06:21.210Z,4.97
2022-10-19T07:08:49.682Z,4.37
2022-10-19T07:11:21.433Z,4.73
2022-10-19T07:13:49.740Z,4.93
2022-10-19T07:16:21.004Z,4.47
2022-10-19T07:18:49.937Z,4.53
2022-10-19T07:21:19.718Z,4.17
2022-10-19T07:23:48.370Z,3.93
2022-10-19T07:26:17.528Z,3.83
2022-10-19T07:28:46.934Z,3.90
2022-10-19T07:31:17.985Z,3.67
2022-10-19T07:33:47.928Z,4.07
2022-10-19T07:36:16.185Z,4.40
2022-10-19T07:38:58.400Z,3.83
2022-10-19T07:41:26.995Z,4.50
2022-10-19T07:43:57.809Z,4.23
2022-10-19T07:46:27.219Z,4.33
2022-10-19T07:48:57.036Z,4.70
2022-10-19T07:53:57.721Z,4.20
2022-10-19T07:56:26.836Z,4.00
2022-10-19T07:58:56.044Z,4.37
2022-10-19T08:01:24.938Z,3.17
2022-10-19T08:06:42.947Z,3.93
2022-10-19T08:09:13.399Z,2.80
2022-10-19T08:11:52.731Z,2.60
2022-10-19T08:14:21.039Z,2.43
2022-10-19T08:16:49.318Z,2.80
2022-10-19T08:19:17.818Z,2.60
2022-10-19T08:21:51.193Z,2.43
2022-10-19T08:24:19.926Z,2.60
2022-10-19T08:26:51.301Z,2.47
2022-10-19T08:29:20.903Z,1.80
2022-10-19T08:31:51.130Z,1.87
2022-10-19T08:34:19.496Z,2.27
2022-10-19T08:36:49.168Z,2.63
2022-10-19T08:39:21.047Z,2.20
2022-10-19T08:41:57.600Z,1.87
2022-10-19T08:44:35.931Z,2.10
2022-10-19T08:47:07.775Z,1.90
2022-10-19T08:49:38.624Z,2.10
2022-10-19T08:52:14.093Z,1.87
2022-10-19T08:54:48.532Z,1.93
2022-10-19T08:57:25.872Z,1.80
2022-10-19T08:59:56.491Z,1.70
2022-10-19T09:02:32.438Z,2.10
2022-10-19T09:05:11.079Z,2.00
2022-10-19T09:07:45.954Z,1.53
2022-10-19T09:10:19.734Z,2.10
2022-10-19T09:12:53.954Z,2.47
2022-10-19T09:15:28.083Z,1.67
2022-10-19T09:17:57.597Z,2.47
2022-10-19T09:20:28.012Z,2.30
2022-10-19T09:23:03.874Z,1.43
2022-10-19T09:25:35.592Z,2.20
2022-10-19T09:28:13.819Z,1.43
2022-10-19T09:30:49.778Z,1.53
2022-10-19T09:33:27.380Z,1.50
2022-10-19T09:36:01.448Z,1.63
2022-10-19T09:38:32.697Z,1.47
2022-10-19T09:41:04.113Z,1.50
2022-10-19T09:43:32.446Z,1.70
2022-10-19T09:46:02.132Z,1.33
2022-10-19T09:48:36.871Z,1.20
2022-10-19T09:51:05.567Z,1.17
2022-10-19T09:53:35.109Z,1.37
2022-10-19T09:56:10.594Z,1.83
2022-10-19T09:59:11.294Z,1.23
2022-10-19T10:01:43.518Z,1.20
2022-10-19T10:04:14.937Z,1.40
2022-10-19T10:06:48.635Z,1.60
2022-10-19T10:09:27.345Z,1.97
2022-10-19T10:11:56.057Z,1.33
2022-10-19T10:14:26.681Z,1.80
2022-10-19T10:33:08.216Z,1.30
2022-10-19T10:35:57.050Z,1.10
2022-10-19T10:38:27.031Z,1.53
2022-10-19T10:40:59.320Z,1.27
2022-10-19T10:43:34.356Z,0.90
2022-10-19T10:46:15.685Z,1.13
2022-10-19T10:48:48.460Z,1.20
2022-10-19T10:51:24.662Z,1.10
2022-10-19T10:53:52.951Z,0.97
2022-10-19T10:56:26.142Z,1.37
2022-10-19T10:59:05.686Z,1.07
2022-10-19T11:01:36.561Z,1.70
2022-10-19T11:04:13.887Z,1.20
2022-10-19T11:06:44.753Z,1.43
2022-10-19T11:09:17.732Z,1.27
2022-10-19T11:11:47.217Z,1.20
2022-10-19T11:14:38.599Z,1.20
2022-10-19T11:17:08.307Z,1.97
2022-10-19T11:19:43.126Z,1.37
2022-10-19T11:22:37.212Z,1.30
2022-10-19T11:25:26.219Z,1.43
2022-10-19T11:27:59.966Z,1.20
2022-10-19T11:30:28.297Z,1.30
2022-10-19T11:33:07.821Z,1.33
2022-10-19T11:35:52.985Z,1.10
2022-10-19T11:38:38.016Z,1.23
2022-10-19T11:41:17.901Z,1.40
2022-10-19T11:43:53.131Z,1.40
2022-10-19T11:46:26.557Z,0.87
2022-10-19T11:49:08.229Z,1.10
2022-10-19T11:51:40.857Z,1.10
2022-10-19T11:54:23.423Z,1.00
2022-10-19T11:57:03.580Z,1.10
2022-10-19T11:59:42.273Z,1.10
2022-10-19T12:02:24.459Z,1.20
2022-10-19T12:04:54.615Z,1.57
2022-10-19T12:07:57.893Z,1.37
2022-10-19T12:10:29.189Z,1.57
2022-10-19T12:13:08.669Z,1.10
2022-10-19T12:15:42.516Z,0.90
2022-10-19T12:18:14.119Z,1.40
2022-10-19T12:20:48.919Z,1.13
2022-10-19T12:23:24.252Z,1.30
2022-10-19T12:25:58.578Z,1.10
2022-10-19T12:28:36.299Z,1.17
2022-10-19T12:31:04.627Z,1.13
2022-10-19T12:33:45.539Z,1.13
2022-10-19T12:36:34.279Z,1.50
2022-10-19T12:39:20.903Z,1.20
2022-10-19T12:41:53.228Z,1.43
2022-10-19T12:45:05.789Z,1.10
2022-10-19T12:47:44.142Z,1.33
2022-10-19T12:50:24.492Z,1.30
2022-10-19T12:52:54.787Z,1.23
2022-10-19T12:55:34.854Z,1.37
2022-10-19T12:58:26.572Z,1.47
2022-10-19T13:01:12.677Z,1.07
2022-10-19T14:10:22.725Z,1.00
2022-10-19T14:12:58.100Z,1.00
2022-10-19T14:15:27.806Z,1.43
2022-10-19T14:17:56.030Z,1.30
2022-10-19T14:20:31.187Z,1.57
2022-10-19T14:23:23.222Z,1.67
2022-10-19T14:25:51.925Z,1.33
2022-10-19T14:28:21.906Z,1.20
2022-10-19T14:30:59.052Z,1.60
2022-10-19T14:33:27.797Z,1.47
2022-10-19T14:36:03.320Z,1.50
2022-10-19T14:38:37.415Z,1.30
2022-10-19T14:41:08.566Z,1.33
2022-10-19T14:43:38.483Z,1.47
2022-10-19T14:46:14.792Z,2.03
2022-10-19T14:48:48.703Z,1.37
2022-10-19T14:51:29.906Z,1.47
2022-10-19T14:54:04.868Z,1.47
2022-10-19T14:56:35.156Z,1.30
2022-10-19T14:59:10.210Z,1.20
2022-10-19T15:01:39.568Z,1.60
2022-10-19T15:04:16.226Z,1.27
2022-10-19T15:06:54.030Z,1.50
2022-10-19T15:09:36.824Z,2.20
2022-10-19T15:12:15.584Z,1.63
2022-10-19T15:14:47.873Z,1.40
2022-10-19T15:17:30.923Z,1.30
2022-10-19T15:20:09.460Z,1.30
2022-10-19T15:22:40.421Z,1.60
2022-10-19T15:25:36.771Z,2.23
2022-10-19T15:28:21.888Z,1.90
2022-10-19T15:31:02.990Z,1.53
2022-10-19T15:33:31.078Z,1.90
2022-10-19T15:36:19.207Z,1.40
2022-10-19T15:38:48.573Z,1.43
2022-10-19T15:41:26.917Z,1.90
2022-10-19T15:43:56.743Z,1.80
2022-10-19T15:46:35.183Z,1.90
2022-10-19T15:49:06.897Z,2.10
2022-10-19T15:51:48.517Z,2.07
2022-10-19T15:54:17.376Z,2.07
2022-10-19T15:56:50.557Z,1.83
2022-10-19T15:59:21.830Z,2.67
2022-10-19T16:01:59.088Z,2.63
2022-10-19T16:04:27.289Z,2.00
2022-10-19T16:06:55.701Z,2.27
2022-10-19T16:09:23.841Z,1.80
2022-10-19T16:11:57.420Z,1.73
2022-10-19T16:14:26.763Z,1.70
2022-10-19T16:17:03.914Z,1.70
2022-10-19T16:19:32.194Z,2.10
2022-10-19T16:22:06.465Z,1.97
2022-10-19T16:24:34.837Z,1.90
2022-10-19T16:27:03.154Z,2.00
2022-10-19T16:29:35.089Z,1.80
2022-10-19T16:32:11.832Z,2.30
2022-10-19T16:34:53.329Z,1.70
2022-10-19T16:37:23.266Z,2.70
2022-10-19T16:39:51.639Z,2.40
2022-10-19T16:42:31.722Z,2.90
2022-10-19T16:45:00.061Z,1.83
2022-10-19T16:47:30.011Z,2.10
2022-10-19T16:50:00.636Z,1.77
2022-10-19T16:52:31.781Z,1.67
2022-10-19T16:55:00.104Z,1.83
2022-10-19T16:57:28.444Z,1.40
2022-10-19T16:59:56.804Z,1.80
2022-10-19T17:02:24.966Z,1.50
2022-10-19T17:04:54.531Z,2.20
2022-10-19T17:07:22.974Z,2.00
2022-10-19T17:09:55.917Z,2.40
2022-10-19T17:12:26.817Z,1.97
2022-10-19T17:15:02.965Z,1.30
2022-10-19T17:17:43.157Z,1.60
2022-10-19T17:20:15.755Z,2.07
2022-10-19T17:22:44.048Z,2.20
2022-10-19T17:25:14.724Z,1.90
2022-10-19T17:27:48.842Z,1.93
2022-10-19T17:30:17.097Z,2.13
2022-10-19T17:32:45.651Z,2.20
2022-10-19T17:35:15.800Z,1.90
2022-10-19T17:37:44.085Z,2.60
2022-10-19T17:40:13.853Z,2.23
2022-10-19T17:42:42.328Z,2.30
2022-10-19T17:45:13.866Z,2.43
2022-10-19T17:47:42.239Z,2.47
2022-10-19T17:50:11.254Z,3.07
2022-10-19T17:53:00.750Z,2.30
2022-10-19T17:55:29.192Z,3.03
2022-10-19T17:57:59.381Z,2.83
2022-10-19T18:00:30.507Z,2.90
2022-10-19T18:02:58.656Z,2.53
2022-10-19T18:05:26.876Z,3.07
2022-10-19T18:08:16.389Z,3.00
2022-10-19T18:10:55.120Z,2.87
2022-10-19T18:13:23.359Z,3.17
2022-10-19T18:15:54.234Z,3.10
2022-10-19T18:18:34.300Z,3.40
2022-10-19T18:21:06.049Z,3.27
2022-10-19T18:23:38.068Z,3.50
2022-10-19T18:26:06.994Z,3.57
2022-10-19T18:28:35.324Z,4.47
2022-10-19T18:31:08.771Z,4.10
2022-10-19T18:33:44.542Z,3.83
2022-10-19T18:36:12.869Z,4.33
2022-10-19T18:38:42.560Z,4.13
2022-10-19T18:43:53.800Z,3.37
2022-10-19T18:46:27.412Z,3.80
2022-10-19T18:49:04.889Z,3.90
2022-10-19T18:51:40.550Z,4.00
2022-10-19T18:54:25.219Z,4.80
2022-10-19T18:56:57.965Z,4.57
2022-10-19T18:59:35.220Z,4.53
2022-10-19T19:02:13.596Z,4.27
2022-10-19T19:04:50.955Z,4.20
2022-10-19T19:07:23.832Z,5.07
2022-10-19T19:10:00.926Z,4.73
2022-10-19T19:12:38.928Z,4.60
2022-10-19T19:15:14.097Z,5.50
2022-10-19T19:17:46.988Z,4.73
2022-10-19T19:20:15.179Z,5.17
2022-10-19T19:22:43.501Z,4.53
2022-10-19T19:25:16.240Z,4.87
2022-10-19T19:27:47.215Z,5.30
2022-10-19T19:30:20.388Z,5.27
2022-10-19T19:32:55.555Z,5.27
2022-10-19T19:35:23.983Z,4.83
2022-10-19T19:37:52.105Z,5.27
2022-10-19T19:40:24.729Z,4.93
2022-10-19T19:42:52.976Z,4.90
2022-10-19T19:45:24.048Z,4.77
2022-10-19T19:47:52.240Z,4.90
2022-10-19T19:50:20.548Z,4.83
2022-10-19T19:52:49.374Z,4.90
2022-10-19T19:55:17.559Z,5.23
2022-10-19T19:57:50.287Z,5.50
2022-10-19T20:00:20.322Z,4.40
2022-10-19T20:02:55.016Z,4.50
2022-10-19T20:05:23.279Z,4.37
2022-10-19T20:07:51.357Z,4.50
2022-10-19T20:10:19.797Z,4.93
2022-10-19T20:12:49.525Z,3.87
2022-10-19T20:15:18.499Z,5.00
2022-10-19T20:17:49.143Z,4.57
2022-10-19T20:20:18.243Z,3.90
2022-10-19T20:22:49.712Z,3.40
2022-10-19T20:25:17.965Z,4.00
2022-10-19T20:27:46.449Z,3.90
2022-10-19T20:30:21.108Z,4.00
2022-10-19T20:32:49.562Z,4.10
2022-10-19T20:35:20.062Z,4.33
2022-10-19T20:37:50.726Z,3.90
2022-10-19T20:40:19.857Z,3.80
2022-10-19T20:42:48.647Z,4.20
2022-10-19T20:45:18.842Z,4.30
2022-10-19T20:47:49.340Z,3.80
2022-10-19T20:50:20.608Z,4.10
2022-10-19T20:52:52.944Z,3.40
2022-10-19T20:55:22.609Z,4.20
2022-10-19T20:57:53.599Z,3.70
2022-10-19T21:00:23.341Z,3.90
2022-10-19T21:02:59.827Z,4.00
2022-10-19T21:05:28.165Z,3.97
2022-10-19T21:07:57.833Z,3.60
2022-10-19T21:10:26.017Z,3.60
2022-10-19T21:12:54.078Z,4.00
2022-10-19T21:15:30.977Z,3.50
2022-10-19T21:18:00.449Z,3.80
2022-10-19T21:20:29.529Z,3.80
2022-10-19T21:22:59.089Z,3.50
2022-10-19T21:25:30.514Z,4.27
2022-10-19T21:28:01.346Z,3.70
2022-10-19T21:30:30.945Z,4.27
2022-10-19T21:32:59.250Z,3.87
2022-10-19T21:35:27.336Z,4.17
2022-10-19T21:37:55.571Z,3.80
2022-10-19T21:40:29.297Z,3.57
2022-10-19T21:42:57.601Z,3.87
2022-10-19T21:45:30.255Z,3.10
2022-10-19T21:48:00.754Z,3.33
2022-10-19T21:50:29.376Z,3.80
2022-10-19T21:52:57.899Z,4.13
2022-10-19T21:55:26.392Z,3.67
2022-10-19T21:57:54.517Z,3.57
2022-10-19T22:00:22.676Z,4.10
2022-10-19T22:02:54.205Z,3.73
2022-10-19T22:05:23.981Z,3.60
2022-10-19T22:07:52.187Z,3.47
2022-10-19T22:10:22.229Z,3.93
2022-10-19T22:12:53.252Z,4.10
2022-10-19T22:15:23.695Z,4.37
2022-10-19T22:17:53.316Z,3.50
2022-10-19T22:20:21.651Z,4.20
2022-10-19T22:22:54.992Z,4.07
2022-10-19T22:25:23.231Z,4.27
2022-10-19T22:27:51.661Z,4.20
2022-10-19T22:30:22.416Z,4.70
2022-10-19T22:32:50.613Z,4.93
2022-10-19T22:35:18.921Z,4.43
2022-10-19T22:37:47.088Z,3.70
2022-10-19T22:40:16.678Z,4.43
2022-10-19T22:42:44.829Z,4.40
2022-10-19T22:45:13.078Z,3.90
2022-10-19T22:47:41.443Z,4.07
2022-10-19T22:50:11.923Z,4.10
2022-10-19T22:52:40.109Z,4.10
2022-10-19T22:55:10.327Z,4.13
2022-10-19T22:57:39.981Z,4.07
2022-10-19T23:00:09.503Z,4.07
2022-10-19T23:02:38.101Z,4.20
2022-10-19T23:05:09.201Z,4.70
2022-10-19T23:07:38.743Z,4.20
2022-10-19T23:10:07.986Z,4.17
2022-10-19T23:12:36.189Z,4.03
2022-10-19T23:17:48.985Z,4.27
2022-10-19T23:20:17.325Z,4.33
2022-10-19T23:22:46.020Z,3.83
2022-10-19T23:25:17.166Z,4.20
2022-10-19T23:27:50.209Z,4.10
2022-10-19T23:30:20.939Z,4.73
2022-10-19T23:32:49.295Z,5.00
2022-10-19T23:35:17.684Z,4.50
2022-10-19T23:37:54.870Z,4.50
2022-10-19T23:40:23.118Z,4.43
2022-10-19T23:42:51.727Z,5.40
2022-10-19T23:45:23.858Z,4.10
2022-10-19T23:47:52.002Z,4.00
2022-10-19T23:50:20.230Z,4.53
2022-10-19T23:52:50.947Z,5.07
2022-10-19T23:55:22.393Z,4.80
2022-10-19T23:57:50.805Z,4.83
